Time;durP1;ratioP1;P1;durP2;ratioP2;P2;SDS_P1;SDS_P2;PMS_P1;PMS_P2;Temp;Humidity;BMP_temperature;BMP_pressure;BME280_temperature;BME280_humidity;BME280_pressure;Samples;Min_cycle;Max_cycle;Signal;HPM_P1;HPM_P2
2022/01/26 00:06:04;;;;;;;21.75;8.07;;;;;;;2.50;88.84;102615.44;6075265;28;20794;-72
2022/01/26 00:09:00;;;;;;;18.38;7.80;;;;;;;2.54;89.33;102611.81;6066830;28;20033;-72
2022/01/26 00:11:56;;;;;;;19.80;6.63;;;;;;;2.50;89.57;102621.50;6075297;28;20075;-73
2022/01/26 00:14:51;;;;;;;21.10;7.75;;;;;;;2.51;89.64;102625.84;6074890;28;20030;-72
2022/01/26 00:17:46;;;;;;;19.70;8.07;;;;;;;2.49;89.45;102618.94;6077108;28;20033;-73
2022/01/26 00:20:53;;;;;;;23.77;7.60;;;;;;;2.47;89.37;102620.78;6075698;28;20392;-72
2022/01/26 00:24:08;;;;;;;16.83;6.07;;;;;;;2.50;88.20;102615.44;6077138;28;20477;-73
2022/01/26 00:27:21;;;;;;;16.85;5.35;;;;;;;2.51;87.39;102622.38;6076180;28;20783;-73
2022/01/26 00:39:42;;;;;;;16.92;4.55;;;;;;;2.53;87.18;102631.06;6075027;28;20037;-73
2022/01/26 00:42:38;;;;;;;15.97;5.63;;;;;;;2.51;87.92;102625.00;6075566;28;20029;-72
2022/01/26 00:45:35;;;;;;;13.75;5.35;;;;;;;2.50;88.16;102616.28;6076461;28;20025;-72
2022/01/26 00:48:32;;;;;;;14.63;5.80;;;;;;;2.47;88.50;102620.78;6075697;28;20164;-72
2022/01/26 00:51:28;;;;;;;17.23;5.40;;;;;;;2.45;88.14;102619.97;6073763;28;20445;-72
2022/01/26 00:54:23;;;;;;;20.15;6.25;;;;;;;2.44;88.23;102618.25;6076109;28;20025;-72
2022/01/26 00:57:18;;;;;;;17.83;6.23;;;;;;;2.37;89.09;102605.34;6075333;28;20037;-72
2022/01/26 01:00:17;;;;;;;16.40;5.55;;;;;;;2.50;89.51;102610.19;6075427;28;20113;-72
2022/01/26 01:03:12;;;;;;;12.50;5.00;;;;;;;2.32;90.85;102604.63;6075556;28;20111;-72
2022/01/26 01:06:16;;;;;;;15.83;5.20;;;;;;;2.24;91.19;102608.38;6075626;28;20049;-72
2022/01/26 01:09:12;;;;;;;18.42;5.95;;;;;;;2.13;92.06;102605.22;6075963;28;20104;-73
2022/01/26 01:12:08;;;;;;;18.63;6.10;;;;;;;2.09;93.30;102606.22;6074063;28;20041;-73
2022/01/26 01:15:03;;;;;;;22.50;7.30;;;;;;;2.11;92.96;102600.03;6073772;28;20436;-72
2022/01/26 01:18:15;;;;;;;20.88;6.82;;;;;;;2.09;93.78;102601.00;6075913;28;20033;-72
2022/01/26 01:21:47;;;;;;;16.63;5.63;;;;;;;1.98;94.28;102593.47;6074417;28;20554;-73
2022/01/26 01:31:29;;;;;;;20.70;6.68;;;;;;;1.95;94.41;102583.09;6071574;28;20400;-72
2022/01/26 01:34:26;;;;;;;;;;;;;;;1.97;94.02;102593.50;6073628;28;20108;-73
2022/01/26 01:37:22;;;;;;;17.92;6.75;;;;;;;1.99;94.63;102592.53;6075332;28;19948;-73
2022/01/26 01:40:17;;;;;;;17.23;6.50;;;;;;;1.97;94.60;102596.97;6065472;28;20064;-73
2022/01/26 01:43:13;;;;;;;16.97;6.40;;;;;;;1.99;94.43;102599.53;6075428;28;20128;-72
2022/01/26 01:46:09;;;;;;;23.27;5.88;;;;;;;1.98;94.70;102596.09;6074250;28;20052;-72
2022/01/26 01:49:05;;;;;;;19.70;6.63;;;;;;;1.97;94.46;102586.50;6074873;28;20473;-72
2022/01/26 01:52:04;;;;;;;20.67;5.72;;;;;;;2.00;94.61;102580.31;6070571;28;20037;-72
2022/01/26 01:55:03;;;;;;;20.08;5.85;;;;;;;2.00;95.10;102580.31;6074086;28;20038;-73
2022/01/26 01:58:00;;;;;;;24.15;6.57;;;;;;;1.98;94.42;102572.53;6074983;28;20037;-72
2022/01/26 02:00:56;;;;;;;21.80;6.72;;;;;;;1.96;94.13;102571.69;6072490;28;20044;-72
2022/01/26 02:03:53;;;;;;;20.83;7.07;;;;;;;2.02;94.72;102563.69;6074731;28;20033;-72
2022/01/26 02:06:49;;;;;;;25.02;6.63;;;;;;;1.97;94.14;102576.03;6073869;28;20095;-72
2022/01/26 02:09:44;;;;;;;26.02;7.50;;;;;;;1.97;94.13;102569.94;6073831;28;20034;-72
2022/01/26 02:12:44;;;;;;;16.03;5.93;;;;;;;2.02;94.31;102558.44;6073554;28;20045;-73
2022/01/26 02:49:16;;;;;;;18.27;6.10;;;;;;;1.97;93.60;102557.72;6060982;28;20037;-73
2022/01/26 02:54:25;;;;;;;21.33;6.57;;;;;;;2.03;93.59;102520.94;6072141;28;20037;-72
2022/01/26 03:00:32;;;;;;;22.30;6.40;;;;;;;2.04;93.31;102508.72;6071431;28;20033;-72
2022/01/26 03:03:38;;;;;;;20.95;6.10;;;;;;;2.04;93.21;102506.09;6071569;28;20033;-73
2022/01/26 03:06:42;;;;;;;22.95;6.13;;;;;;;2.00;92.61;102499.22;6070769;28;20032;-73
2022/01/26 03:09:44;;;;;;;25.85;7.03;;;;;;;1.96;92.80;102513.31;6071627;28;20065;-73
2022/01/26 03:16:20;;;;;;;;;;;;;;;1.96;92.94;102516.78;6072230;28;20041;-72
2022/01/26 03:19:18;;;;;;;19.75;5.60;;;;;;;1.92;92.52;102496.00;6065398;28;19944;-72
2022/01/26 03:28:45;;;;;;;22.75;6.78;;;;;;;1.86;92.66;102477.88;6072865;28;20041;-73
2022/01/26 03:34:39;;;;;;;21.95;6.63;;;;;;;1.89;93.29;102493.47;6072732;28;20037;-73
2022/01/26 03:37:38;;;;;;;19.88;6.00;;;;;;;1.90;93.17;102496.06;6059864;28;20028;-72
2022/01/26 03:40:37;;;;;;;19.48;5.95;;;;;;;1.89;92.72;102486.50;6065687;28;20061;-73
2022/01/26 03:43:32;;;;;;;20.42;6.13;;;;;;;1.87;92.56;102488.31;6073404;28;20040;-73
2022/01/26 03:46:27;;;;;;;18.07;6.40;;;;;;;1.80;92.45;102498.09;6072549;28;20037;-73
2022/01/26 03:49:22;;;;;;;22.23;6.97;;;;;;;1.85;93.33;102500.56;6072496;28;20048;-72
2022/01/26 03:52:18;;;;;;;23.40;6.87;;;;;;;1.78;93.08;102505.13;6071728;28;20369;-72
2022/01/26 03:55:13;;;;;;;21.20;6.13;;;;;;;1.84;93.39;102498.00;6072347;28;20034;-72
2022/01/26 03:58:09;;;;;;;23.02;6.85;;;;;;;1.82;93.62;102490.22;6073147;28;20104;-73
2022/01/26 04:01:04;;;;;;;23.07;6.07;;;;;;;1.86;93.51;102488.34;6071589;28;20029;-72
2022/01/26 04:04:00;;;;;;;23.10;6.15;;;;;;;1.83;93.12;102493.66;6072255;28;20109;-73
2022/01/26 04:06:55;;;;;;;19.70;5.78;;;;;;;1.76;93.01;102506.94;6072715;28;20033;-72
2022/01/26 04:09:50;;;;;;;21.13;6.43;;;;;;;1.72;93.57;102513.16;6071793;28;20043;-72
2022/01/26 04:12:46;;;;;;;25.03;7.07;;;;;;;1.69;94.09;102514.97;6072295;28;20813;-72
2022/01/26 04:15:41;;;;;;;23.03;7.10;;;;;;;1.72;94.15;102509.66;6068571;28;20033;-73
2022/01/26 04:18:39;;;;;;;21.43;6.20;;;;;;;1.66;94.21;102504.63;6064579;28;20318;-72
2022/01/26 04:24:52;;;;;;;23.67;7.07;;;;;;;1.67;94.26;102501.97;6075458;28;20112;-72
2022/01/26 04:27:50;;;;;;;20.67;6.10;;;;;;;1.68;95.08;102518.53;6075105;28;20033;-72
2022/01/26 04:30:46;;;;;;;21.23;7.18;;;;;;;1.62;94.12;102521.31;6075283;28;20374;-72
2022/01/26 04:33:41;;;;;;;32.23;9.27;;;;;;;1.67;94.25;102527.25;6076935;28;20041;-73
2022/01/26 04:36:43;;;;;;;27.13;6.90;;;;;;;1.64;94.17;102514.28;6068513;28;20109;-72
2022/01/26 04:39:50;;;;;;;23.58;7.07;;;;;;;1.63;94.91;102499.50;6062741;28;20042;-72
2022/01/26 04:42:59;;;;;;;24.25;6.10;;;;;;;1.53;94.73;102504.13;6075854;28;20037;-72
2022/01/26 04:45:54;;;;;;;26.25;7.07;;;;;;;1.56;95.48;102490.97;6075474;28;20478;-73
2022/01/26 04:48:50;;;;;;;26.70;7.68;;;;;;;1.53;94.65;102498.03;6071079;28;20038;-72
2022/01/26 04:51:45;;;;;;;21.92;6.65;;;;;;;1.53;95.50;102496.28;6074774;28;20037;-73
2022/01/26 04:54:41;;;;;;;23.57;7.27;;;;;;;1.52;95.62;102485.88;6074689;28;20120;-72
2022/01/26 04:57:36;;;;;;;21.63;6.70;;;;;;;1.54;95.26;102479.72;6075076;28;20037;-72
2022/01/26 05:00:31;;;;;;;24.87;7.20;;;;;;;1.49;95.68;102475.53;6074083;28;20049;-73
2022/01/26 05:03:26;;;;;;;25.63;6.90;;;;;;;1.51;96.01;102478.94;6075865;28;20033;-72
2022/01/26 05:06:23;;;;;;;30.80;8.93;;;;;;;1.42;95.26;102473.97;6075151;28;20396;-72
2022/01/26 05:09:22;;;;;;;22.42;6.22;;;;;;;1.48;95.67;102484.25;6072882;28;20033;-72
2022/01/26 05:12:18;;;;;;;21.33;6.43;;;;;;;1.42;95.45;102487.91;6070107;28;20103;-72
2022/01/26 05:15:14;;;;;;;25.50;6.85;;;;;;;1.38;95.75;102494.13;6066960;28;20397;-73
2022/01/26 05:18:10;;;;;;;28.63;7.88;;;;;;;1.34;95.60;102499.47;6063625;28;20044;-73
2022/01/26 05:21:05;;;;;;;29.35;7.90;;;;;;;1.34;95.90;102483.78;6073070;28;20084;-73
2022/01/26 05:24:01;;;;;;;34.97;9.47;;;;;;;1.32;95.69;102488.22;6074898;28;20049;-72
2022/01/26 05:26:56;;;;;;;28.70;8.52;;;;;;;1.29;95.81;102486.53;6072733;28;20632;-72
2022/01/26 05:29:51;;;;;;;34.57;8.43;;;;;;;1.30;96.45;102479.56;6074913;28;20029;-72
2022/01/26 05:32:47;;;;;;;30.93;8.87;;;;;;;1.26;96.14;102477.94;6072968;28;20033;-72
2022/01/26 05:35:42;;;;;;;28.77;7.13;;;;;;;1.29;95.97;102464.78;6069265;28;20389;-73
2022/01/26 05:38:38;;;;;;;27.45;7.88;;;;;;;1.28;95.87;102463.09;6070212;28;20416;-73
2022/01/26 05:41:33;;;;;;;23.73;7.30;;;;;;;1.18;95.79;102472.91;6063789;28;20033;-73
2022/01/26 05:44:28;;;;;;;27.48;7.50;;;;;;;1.17;96.11;102476.41;6064883;28;20338;-73
2022/01/26 05:47:24;;;;;;;26.63;8.07;;;;;;;1.21;96.11;102465.00;6073776;28;20102;-72
2022/01/26 05:50:19;;;;;;;34.53;8.03;;;;;;;1.13;96.51;102460.00;6072300;28;20044;-72
2022/01/26 05:53:16;;;;;;;30.30;7.85;;;;;;;1.16;96.46;102452.06;6070024;28;20104;-72
2022/01/26 05:56:11;;;;;;;36.35;9.18;;;;;;;1.13;96.02;102441.72;6072029;28;20056;-72
2022/01/26 05:59:06;;;;;;;26.83;7.93;;;;;;;1.12;96.58;102444.34;6050833;28;20416;-72
2022/01/26 06:02:02;;;;;;;33.17;9.03;;;;;;;1.09;96.71;102450.53;6057796;28;20083;-72
2022/01/26 06:04:57;;;;;;;25.80;7.78;;;;;;;1.10;96.22;102462.69;6073431;28;20277;-72
2022/01/26 06:07:53;;;;;;;28.87;8.07;;;;;;;1.12;96.45;102458.28;6068435;28;20030;-72
2022/01/26 06:10:49;;;;;;;29.53;7.43;;;;;;;1.17;97.02;102461.59;6049392;28;20624;-72
2022/01/26 06:13:44;;;;;;;29.40;8.30;;;;;;;1.17;96.55;102448.53;6070298;28;20034;-72
2022/01/26 06:16:39;;;;;;;33.60;8.30;;;;;;;1.22;96.71;102453.66;6070382;28;20044;-71
2022/01/26 06:19:35;;;;;;;23.07;7.13;;;;;;;1.18;96.62;102450.28;6054160;28;20277;-72
2022/01/26 06:22:30;;;;;;;28.70;6.53;;;;;;;1.18;95.46;102452.88;6055231;28;20044;-72
2022/01/26 06:25:27;;;;;;;27.93;8.23;;;;;;;1.17;96.48;102445.06;6071155;28;20272;-72
2022/01/26 06:28:28;;;;;;;31.48;8.23;;;;;;;1.17;95.48;102438.09;6071069;28;20275;-72
2022/01/26 06:31:27;;;;;;;26.77;7.55;;;;;;;1.24;95.62;102443.16;6070830;28;20493;-72
2022/01/26 06:34:22;;;;;;;31.30;8.15;;;;;;;1.23;95.59;102444.03;6070170;28;20032;-72
2022/01/26 06:37:18;;;;;;;37.63;8.97;;;;;;;1.25;96.27;102440.47;6060499;28;20057;-73
2022/01/26 06:40:13;;;;;;;33.92;10.23;;;;;;;1.17;95.84;102438.09;6050073;28;20371;-72
2022/01/26 06:43:14;;;;;;;35.10;9.50;;;;;;;1.16;95.33;102446.00;6068479;28;20469;-72
2022/01/26 06:46:10;;;;;;;36.25;9.68;;;;;;;1.21;95.38;102446.72;6066428;28;20041;-73
2022/01/26 06:49:28;;;;;;;47.60;13.20;;;;;;;1.18;94.80;102447.66;6067795;28;20029;-72
2022/01/26 06:52:20;;;;;;;43.15;11.68;;;;;;;1.19;94.82;102457.22;6068798;28;20280;-72
2022/01/26 06:55:17;;;;;;;44.53;11.93;;;;;;;1.26;94.50;102457.88;6072791;28;20048;-72
2022/01/26 06:58:12;;;;;;;40.22;11.48;;;;;;;1.21;94.18;102449.31;6072651;28;20033;-72
2022/01/26 07:01:07;;;;;;;41.50;12.03;;;;;;;1.26;94.15;102452.66;6067339;28;20385;-72
2022/01/26 07:04:03;;;;;;;45.23;11.23;;;;;;;1.19;93.84;102465.06;6073004;28;20052;-72
2022/01/26 07:06:58;;;;;;;43.17;12.77;;;;;;;1.22;93.87;102465.88;6068934;28;20037;-72
2022/01/26 07:09:53;;;;;;;49.57;13.20;;;;;;;1.19;94.03;102475.50;6065771;28;20063;-72
2022/01/26 07:12:49;;;;;;;47.00;13.10;;;;;;;1.24;93.98;102474.50;6072198;28;20609;-72
2022/01/26 07:22:12;;;;;;;57.72;14.77;;;;;;;1.18;93.29;102475.53;6071520;28;20033;-72
2022/01/26 07:25:07;;;;;;;59.20;15.10;;;;;;;1.18;93.13;102481.63;6073429;28;20057;-72
2022/01/26 07:28:04;;;;;;;55.63;13.60;;;;;;;1.16;93.27;102446.84;6065991;28;20040;-72
2022/01/26 07:31:00;;;;;;;54.13;13.73;;;;;;;1.18;92.65;102433.72;6071071;28;20069;-72
2022/01/26 07:33:57;;;;;;;49.03;13.30;;;;;;;1.13;92.72;102415.59;6067746;28;20048;-73
2022/01/26 07:36:54;;;;;;;51.95;13.73;;;;;;;1.14;92.39;102430.34;6072098;28;20623;-72
2022/01/26 07:40:02;;;;;;;53.95;13.27;;;;;;;1.17;92.24;102435.47;6069972;28;20034;-72
2022/01/26 07:42:57;;;;;;;56.97;13.52;;;;;;;1.16;92.40;102412.03;6065429;28;20041;-72
2022/01/26 07:45:53;;;;;;;53.20;12.80;;;;;;;1.12;92.21;102419.09;6067780;28;20075;-72
2022/01/26 07:48:48;;;;;;;46.40;11.00;;;;;;;1.08;92.27;102417.47;6069044;28;20034;-72
2022/01/26 07:51:43;;;;;;;59.67;13.77;;;;;;;1.08;92.38;102416.63;6071770;28;20121;-72
2022/01/26 07:54:39;;;;;;;52.97;11.47;;;;;;;1.09;91.96;102433.97;6072398;28;20280;-73
2022/01/26 07:57:34;;;;;;;61.77;13.27;;;;;;;1.06;92.12;102440.16;6071747;28;20048;-71
2022/01/26 08:00:29;;;;;;;46.80;12.73;;;;;;;1.11;92.30;102433.03;6068719;28;20372;-73
2022/01/26 08:03:27;;;;;;;64.00;13.47;;;;;;;1.13;91.76;102440.84;6066430;28;20456;-74
2022/01/26 08:06:23;;;;;;;50.10;12.77;;;;;;;1.11;91.80;102438.25;6072529;28;20281;-73
2022/01/26 08:09:18;;;;;;;63.53;13.37;;;;;;;1.04;91.45;102428.91;6077333;28;20034;-73
2022/01/26 08:12:17;;;;;;;46.57;14.13;;;;;;;1.06;91.99;102440.16;6075248;28;20388;-72
2022/01/26 08:15:14;;;;;;;60.38;15.18;;;;;;;1.03;92.11;102432.41;6059147;28;20037;-72
2022/01/26 08:18:09;;;;;;;56.90;14.55;;;;;;;1.03;92.09;102431.56;6074382;28;20030;-72
2022/01/26 08:21:06;;;;;;;73.73;14.87;;;;;;;1.05;91.53;102443.69;6068052;28;20068;-72
2022/01/26 08:24:03;;;;;;;65.63;14.60;;;;;;;1.10;91.63;102452.25;6076198;28;20441;-72
2022/01/26 08:27:05;;;;;;;57.85;13.30;;;;;;;1.04;92.21;102441.97;6068369;28;20042;-72
2022/01/26 08:30:08;;;;;;;64.10;14.07;;;;;;;1.02;92.11;102456.81;6075501;28;20038;-72
2022/01/26 08:33:05;;;;;;;64.05;14.30;;;;;;;1.05;92.04;102463.72;6073232;28;20550;-71
2022/01/26 08:36:00;;;;;;;65.88;15.75;;;;;;;1.00;92.16;102456.03;6075561;28;20112;-72
2022/01/26 08:38:55;;;;;;;60.00;13.87;;;;;;;1.01;91.77;102447.28;6071372;28;20033;-72
2022/01/26 08:41:51;;;;;;;61.27;13.50;;;;;;;1.07;91.90;102460.16;6074093;28;20977;-72
2022/01/26 08:44:46;;;;;;;62.40;13.67;;;;;;;1.07;91.79;102457.56;6071304;28;20060;-72
2022/01/26 08:47:41;;;;;;;61.33;15.33;;;;;;;1.05;91.46;102458.50;6070314;28;20268;-71
2022/01/26 08:50:37;;;;;;;59.73;13.60;;;;;;;1.04;91.64;102465.47;6073671;28;20033;-72
2022/01/26 08:53:32;;;;;;;61.30;13.37;;;;;;;1.05;92.53;102469.81;6075203;28;20021;-72
2022/01/26 08:56:27;;;;;;;66.20;14.97;;;;;;;1.07;92.04;102462.78;6075321;28;20280;-71
2022/01/26 08:59:24;;;;;;;61.70;15.40;;;;;;;1.07;91.99;102472.38;6074843;28;20037;-72
2022/01/26 09:02:20;;;;;;;65.05;15.60;;;;;;;1.07;92.19;102462.78;6073944;28;20271;-72
2022/01/26 09:05:15;;;;;;;68.00;14.20;;;;;;;1.07;91.86;102456.69;6073924;28;20033;-71
2022/01/26 09:08:10;;;;;;;51.70;12.73;;;;;;;1.13;91.40;102460.00;6074782;28;20268;-71
2022/01/26 09:11:06;;;;;;;66.05;14.32;;;;;;;1.12;91.19;102454.81;6073518;28;20052;-72
2022/01/26 09:14:07;;;;;;;63.22;15.50;;;;;;;1.09;91.43;102455.75;6055760;28;20473;-74
2022/01/26 09:17:04;;;;;;;51.25;12.68;;;;;;;1.11;91.62;102446.09;6072457;28;20029;-73
2022/01/26 09:20:03;;;;;;;76.18;17.70;;;;;;;1.12;91.69;102460.88;6071724;28;20037;-71
2022/01/26 09:22:59;;;;;;;62.78;13.80;;;;;;;1.10;91.84;102447.03;6068472;28;20044;-71
2022/01/26 09:25:54;;;;;;;67.60;14.77;;;;;;;1.07;92.21;102468.00;6071783;28;20038;-72
2022/01/26 09:28:49;;;;;;;70.63;17.27;;;;;;;1.14;91.94;102464.31;6073505;28;20279;-71
2022/01/26 09:31:47;;;;;;;77.70;16.63;;;;;;;1.09;91.79;102465.34;6071563;28;20034;-71
2022/01/26 09:34:43;;;;;;;79.10;18.38;;;;;;;1.10;92.08;102487.94;6073666;28;20504;-71
2022/01/26 09:37:39;;;;;;;80.97;17.83;;;;;;;1.05;91.72;102482.88;6070660;28;20060;-73
2022/01/26 09:40:34;;;;;;;78.37;18.33;;;;;;;1.08;91.22;102497.59;6069650;28;20072;-72
2022/01/26 09:43:30;;;;;;;62.33;17.02;;;;;;;1.02;91.21;102479.47;6064666;28;20268;-73
2022/01/26 09:46:25;;;;;;;89.90;19.48;;;;;;;0.99;91.01;102490.84;6081231;28;20032;-73
2022/01/26 09:49:20;;;;;;;82.90;18.67;;;;;;;1.00;90.42;102491.72;6063793;28;20044;-72
2022/01/26 09:52:23;;;;;;;84.43;19.60;;;;;;;1.02;90.94;102501.22;6072363;28;20564;-72
2022/01/26 09:55:18;;;;;;;92.60;20.85;;;;;;;1.02;90.03;102500.38;6073416;28;20111;-72
2022/01/26 09:58:15;;;;;;;80.77;19.27;;;;;;;1.03;90.30;102489.88;6072359;28;20045;-72
2022/01/26 10:01:10;;;;;;;87.93;23.23;;;;;;;1.05;90.02;102492.44;6071096;28;20037;-72
2022/01/26 10:04:06;;;;;;;73.63;17.58;;;;;;;1.04;90.14;102499.41;6068697;28;20052;-72
2022/01/26 10:19:22;;;;;;;85.05;20.75;;;;;;;1.07;90.82;102509.78;6068476;28;20035;-72
2022/01/26 10:22:27;;;;;;;80.00;20.40;;;;;;;1.04;90.82;102509.88;6074037;28;20033;-72
2022/01/26 10:25:23;;;;;;;80.43;17.83;;;;;;;1.03;90.54;102510.75;6069440;28;20404;-73
2022/01/26 10:28:19;;;;;;;72.10;15.53;;;;;;;1.02;90.79;102508.19;6069825;28;20064;-72
2022/01/26 10:31:16;;;;;;;82.35;19.33;;;;;;;1.07;90.13;102501.94;6074296;28;20341;-73
2022/01/26 10:34:22;;;;;;;84.75;18.60;;;;;;;1.06;90.13;102507.22;6071633;28;20072;-73
2022/01/26 10:37:20;;;;;;;65.22;16.00;;;;;;;1.02;90.44;102511.66;6060461;28;20036;-72
2022/01/26 10:40:22;;;;;;;72.35;16.25;;;;;;;1.04;90.49;102517.69;6066266;28;20064;-73
2022/01/26 10:43:18;;;;;;;81.88;18.65;;;;;;;0.96;90.25;102517.06;6068325;28;20037;-72
2022/01/26 10:46:25;;;;;;;91.00;19.25;;;;;;;0.93;90.67;102524.09;6064242;28;20103;-73
2022/01/26 10:52:42;;;;;;;77.00;18.67;;;;;;;0.97;91.21;102537.06;6069974;28;20120;-72
2022/01/26 10:55:39;;;;;;;94.30;20.07;;;;;;;0.98;91.27;102514.41;6070365;28;20424;-73
2022/01/26 10:58:34;;;;;;;80.00;18.95;;;;;;;0.90;91.16;102506.75;6057700;28;20029;-73
2022/01/26 11:01:29;;;;;;;68.77;17.10;;;;;;;1.00;90.80;102503.03;6072153;28;20040;-73
2022/01/26 11:04:25;;;;;;;86.13;19.87;;;;;;;1.01;91.00;102494.28;6061745;28;20392;-73
2022/01/26 11:07:32;;;;;;;79.78;17.98;;;;;;;1.08;91.04;102490.63;6073050;28;20029;-73
2022/01/26 11:10:33;;;;;;;75.90;17.35;;;;;;;1.24;90.76;102479.72;6071090;28;20060;-73
2022/01/26 11:13:36;;;;;;;85.72;17.77;;;;;;;1.41;90.92;102467.06;6062238;28;20044;-73
2022/01/26 11:16:36;;;;;;;70.35;17.05;;;;;;;1.47;90.23;102466.88;6072198;28;20125;-73
2022/01/26 11:19:43;;;;;;;81.03;18.90;;;;;;;1.39;90.18;102458.38;6061683;28;20398;-73
2022/01/26 11:22:55;;;;;;;77.10;17.58;;;;;;;1.33;89.49;102450.75;6061004;28;20025;-73
2022/01/26 11:25:51;;;;;;;70.72;17.48;;;;;;;1.27;88.85;102459.59;6073255;28;20545;-73
2022/01/26 11:28:46;;;;;;;79.87;20.37;;;;;;;1.23;88.96;102465.81;6067391;28;20037;-73
2022/01/26 11:31:42;;;;;;;75.47;18.20;;;;;;;1.26;89.71;102462.25;6072000;28;20037;-73
2022/01/26 11:34:38;;;;;;;73.13;18.08;;;;;;;1.26;89.40;102462.25;6077643;28;20044;-73
2022/01/26 11:37:45;;;;;;;77.15;17.95;;;;;;;1.29;89.04;102451.72;6072778;28;20030;-73
2022/01/26 11:47:30;;;;;;;;;;;;;;;1.27;88.75;102454.38;6076611;28;20037;-73
2022/01/26 11:50:26;;;;;;;78.93;20.23;;;;;;;1.26;88.95;102441.34;6076248;28;19913;-73
2022/01/26 11:53:24;;;;;;;73.70;17.70;;;;;;;1.27;88.49;102453.53;6063558;28;20545;-74
2022/01/26 11:56:21;;;;;;;78.43;17.83;;;;;;;1.37;88.74;102439.28;6074208;28;20021;-73
2022/01/26 11:59:19;;;;;;;71.22;17.15;;;;;;;1.39;88.57;102440.94;6066166;28;20445;-73
2022/01/26 12:02:33;;;;;;;79.60;19.05;;;;;;;1.35;89.08;102436.72;6067160;28;20414;-73
2022/01/26 12:05:29;;;;;;;74.60;18.10;;;;;;;1.38;88.71;102435.78;6069028;28;20032;-72
2022/01/26 12:08:36;;;;;;;78.03;17.43;;;;;;;1.48;88.43;102426.75;6072688;28;20041;-73
2022/01/26 12:11:32;;;;;;;74.65;17.83;;;;;;;1.41;88.49;102406.94;6073456;28;20061;-73
2022/01/26 12:14:27;;;;;;;72.18;17.55;;;;;;;1.50;88.46;102399.66;6072705;28;20043;-73
2022/01/26 12:17:27;;;;;;;73.30;17.70;;;;;;;1.50;87.87;102398.81;6066464;28;20115;-73
2022/01/26 12:33:52;;;;;;;88.35;20.17;;;;;;;1.49;88.95;102370.97;6065413;28;20049;-72
2022/01/26 12:37:05;;;;;;;74.78;19.25;;;;;;;1.60;88.93;102363.66;6066561;28;21647;-73
2022/01/26 12:43:15;;;;;;;77.13;17.85;;;;;;;1.54;88.80;102343.78;6072680;28;20037;-73
2022/01/26 12:46:25;;;;;;;83.85;19.88;;;;;;;1.55;88.33;102347.28;6062106;28;20033;-73
2022/01/26 12:49:20;;;;;;;80.68;19.80;;;;;;;1.61;88.00;102358.38;6067352;28;20102;-72
2022/01/26 12:52:17;;;;;;;86.07;20.63;;;;;;;1.63;87.79;102359.16;6073114;28;20500;-73
2022/01/26 12:55:27;;;;;;;98.60;20.55;;;;;;;1.67;88.24;102349.47;6075662;28;20096;-73
2022/01/26 12:58:28;;;;;;;79.72;19.42;;;;;;;1.67;87.93;102345.09;6074405;28;20037;-73
2022/01/26 13:01:23;;;;;;;86.10;19.02;;;;;;;1.68;88.31;102335.50;6062482;28;20091;-73
2022/01/26 13:04:19;;;;;;;81.53;19.73;;;;;;;1.71;87.91;102330.19;6076043;28;20037;-73
2022/01/26 13:07:17;;;;;;;80.73;21.40;;;;;;;1.71;87.87;102333.63;6068279;28;20055;-73
2022/01/26 13:10:16;;;;;;;71.45;18.52;;;;;;;1.80;88.17;102327.25;6059397;28;20037;-73
2022/01/26 13:13:18;;;;;;;89.20;21.20;;;;;;;1.71;88.43;102324.97;6075802;28;20061;-73
2022/01/26 13:16:21;;;;;;;88.55;20.75;;;;;;;1.66;88.37;102324.22;6065862;28;20057;-73
2022/01/26 13:19:32;;;;;;;86.75;21.52;;;;;;;1.70;88.84;102337.16;6068914;28;20071;-73
2022/01/26 13:29:02;;;;;;;91.40;21.70;;;;;;;1.75;89.10;102332.63;6075752;28;20040;-73
2022/01/26 13:35:34;;;;;;;93.93;21.88;;;;;;;1.70;88.85;102316.25;6073707;28;20068;-73
2022/01/26 13:38:44;;;;;;;74.57;19.30;;;;;;;1.66;89.18;102304.16;6066908;28;20112;-73
2022/01/26 13:42:19;;;;;;;95.28;20.70;;;;;;;1.63;89.80;102311.28;6072071;28;20048;-73
2022/01/26 13:51:24;;;;;;;93.25;20.83;;;;;;;1.59;90.18;102314.88;6062164;28;20459;-73
2022/01/26 13:57:45;;;;;;;87.20;20.57;;;;;;;1.62;90.24;102317.41;6068024;28;20049;-73
2022/01/26 14:00:37;;;;;;;83.82;20.60;;;;;;;1.57;91.07;102316.69;6064556;28;20144;-73
2022/01/26 14:03:35;;;;;;;107.32;23.52;;;;;;;1.56;91.39;102314.97;6073343;28;20401;-72
2022/01/26 14:06:30;;;;;;;86.65;20.95;;;;;;;1.60;90.85;102309.59;6071178;28;20477;-74
2022/01/26 14:09:25;;;;;;;91.53;22.13;;;;;;;1.60;90.94;102303.53;6073183;28;20036;-72
2022/01/26 14:12:26;;;;;;;92.47;23.00;;;;;;;1.51;91.75;102314.28;6081761;28;20041;-72
2022/01/26 14:15:27;;;;;;;93.25;20.33;;;;;;;1.53;92.28;102320.28;6060773;28;20022;-73
2022/01/26 14:24:30;;;;;;;95.97;22.45;;;;;;;1.40;92.77;102324.22;6065373;28;20462;-73
2022/01/26 14:27:36;;;;;;;100.07;24.40;;;;;;;1.37;93.45;102325.16;6066791;28;20532;-72
2022/01/26 14:33:43;;;;;;;90.17;22.20;;;;;;;1.44;94.22;102331.06;6067194;28;20040;-74
2022/01/26 14:36:50;;;;;;;100.75;24.05;;;;;;;1.37;94.32;102325.16;6067048;28;21497;-73
2022/01/26 14:40:23;;;;;;;105.28;23.05;;;;;;;1.39;94.37;102318.13;6066791;28;20374;-73
2022/01/26 14:53:32;;;;;;;99.63;22.83;;;;;;;1.40;94.61;102298.06;6070260;28;20064;-73
2022/01/26 15:00:02;;;;;;;100.18;25.80;;;;;;;1.39;95.07;102314.66;6069717;28;20040;-73
2022/01/26 15:09:20;;;;;;;108.50;23.35;;;;;;;1.41;95.62;102286.72;6058939;28;20398;-73
2022/01/26 15:29:58;;;;;;;112.05;23.40;;;;;;;1.34;96.10;102273.00;6070334;28;20409;-73
2022/01/26 15:50:37;;;;;;;94.93;19.50;;;;;;;1.38;95.60;102279.84;6067490;28;20080;-73
2022/01/26 16:06:01;;;;;;;93.50;19.73;;;;;;;1.41;95.84;102242.31;6060056;28;20037;-72
2022/01/26 16:19:42;;;;;;;87.75;19.85;;;;;;;1.44;95.68;102252.66;6058961;28;20473;-72
2022/01/26 18:05:36;;;;;;;69.38;15.98;;;;;;;1.56;96.61;102197.34;6064185;28;20049;-72
2022/01/26 18:17:53;;;;;;;64.63;14.38;;;;;;;1.57;96.76;102180.78;6063879;28;20767;-72
2022/01/26 18:46:39;;;;;;;81.35;17.77;;;;;;;1.58;96.49;102178.09;6067922;28;20029;-72
2022/01/26 18:49:34;;;;;;;73.63;17.42;;;;;;;1.58;97.41;102172.00;6059768;28;20038;-72
2022/01/26 18:52:30;;;;;;;73.40;16.25;;;;;;;1.59;96.97;102176.34;6057130;28;20037;-72
2022/01/26 18:55:25;;;;;;;66.03;15.82;;;;;;;1.59;96.73;102173.72;6064043;28;20026;-72
2022/01/26 18:58:20;;;;;;;66.40;16.47;;;;;;;1.59;96.82;102169.34;6073811;28;20045;-71
2022/01/26 19:01:16;;;;;;;64.90;15.70;;;;;;;1.61;97.20;102177.13;6080755;28;20291;-71
2022/01/26 19:04:11;;;;;;;65.97;17.97;;;;;;;1.62;96.86;102184.09;6079076;28;20160;-72
2022/01/26 19:07:07;;;;;;;79.45;16.65;;;;;;;1.60;96.73;102172.84;6084132;28;20755;-72
2022/01/26 19:10:03;;;;;;;63.20;14.52;;;;;;;1.63;96.98;102170.13;6078810;28;20620;-73
2022/01/26 19:12:58;;;;;;;68.22;17.00;;;;;;;1.61;96.29;102164.06;6081594;28;20117;-72
2022/01/26 19:15:59;;;;;;;55.17;14.43;;;;;;;1.62;96.36;102155.31;6059347;28;20029;-72
2022/01/26 19:25:00;;;;;;;68.93;16.27;;;;;;;1.64;96.64;102156.13;6070395;28;20072;-72
2022/01/26 19:28:14;;;;;;;63.03;14.13;;;;;;;1.63;97.30;102152.66;6072548;28;20638;-72
2022/01/26 19:53:10;;;;;;;56.45;12.88;;;;;;;1.69;97.25;102141.97;6061326;28;20034;-71
2022/01/26 19:56:06;;;;;;;71.95;16.83;;;;;;;1.71;97.22;102136.72;6068472;28;20485;-72
2022/01/26 19:59:02;;;;;;;59.67;18.35;;;;;;;1.69;97.49;102141.13;6068713;28;20041;-71
2022/01/26 20:01:58;;;;;;;61.13;16.33;;;;;;;1.67;97.42;102122.88;6054259;28;20046;-72
2022/01/26 20:04:54;;;;;;;53.58;16.38;;;;;;;1.73;97.01;102124.44;6073204;28;20095;-71
2022/01/26 20:07:53;;;;;;;50.67;13.90;;;;;;;1.71;96.49;102113.19;6072995;28;20055;-72
2022/01/26 20:10:55;;;;;;;46.03;13.80;;;;;;;1.70;97.35;102107.09;6075115;28;20520;-71
2022/01/26 20:13:52;;;;;;;56.92;15.57;;;;;;;1.71;97.48;102110.56;6069250;28;20066;-71
2022/01/26 20:16:48;;;;;;;62.28;15.93;;;;;;;1.73;97.09;102113.97;6070420;28;20036;-72
2022/01/26 20:19:43;;;;;;;57.47;15.40;;;;;;;1.73;97.28;102114.84;6066976;28;20034;-71